Nearby METAR Reports

 

KHQM - Hoquiam,WA, USA
Updated: 05/20/2019 1:53am
Overcast
Overcast
 Wind from WNW
Wind: WNW 9 mph , 15 km/h
Temperature: 54°F , 12°C
Dew Point: 52°F , 11°C
Humidity: 94%
Barometer: 29.81 inHg , 1009.5 hPa
Clouds: Overcast
Visibility: 9 miles , 14 km
Cloud details: Partly cloudy 1200 ft
Overcast 3400 ft
2019/05/20 08:53 KHQM 200853Z AUTO 29008KT 9SM SCT012 OVC034 12/11 A2981 RMK AO2 SLP097 T01220111 55001